Time,TemperatureF,DewpointF,PressureIn,WindDirection,WindDirectionDegrees,WindSpeedMPH,WindSpeedGustMPH,Humidity,HourlyPrecipIn,Conditions,Clouds,dailyrainin,SoftwareType,DateUTC
2013-03-01 00:01:00,45.7,41.2,30.24,North,-999,0.0,0.0,84,0.00,,,-99.99,FreeWX 2.04,2013-03-01 08:01:00,
2013-03-01 00:06:00,45.5,41.2,30.24,North,-999,0.0,4.0,85,0.00,,,-99.99,FreeWX 2.04,2013-03-01 08:06:00,
2013-03-01 00:11:00,45.3,41.0,30.24,North,-999,0.0,0.0,85,0.00,,,-99.99,FreeWX 2.04,2013-03-01 08:11:00,
2013-03-01 00:16:00,45.3,41.0,30.24,North,-999,0.0,0.0,85,0.00,,,-99.99,FreeWX 2.04,2013-03-01 08:16:00,
2013-03-01 00:21:00,45.3,41.0,30.24,North,-999,0.0,2.7,85,0.00,,,-99.99,FreeWX 2.04,2013-03-01 08:21:00,
2013-03-01 00:26:00,45.5,41.2,30.21,North,-999,0.0,2.7,85,0.00,,,-99.99,FreeWX 2.04,2013-03-01 08:26:00,
2013-03-01 00:31:00,45.3,41.0,30.21,North,-999,0.0,2.7,85,0.00,,,-99.99,FreeWX 2.04,2013-03-01 08:31:00,
2013-03-01 00:36:00,45.3,41.0,30.21,North,-999,0.0,4.5,85,0.00,,,-99.99,FreeWX 2.04,2013-03-01 08:36:00,
2013-03-01 00:41:00,45.1,40.8,30.24,North,-999,0.0,3.1,85,0.00,,,-99.99,FreeWX 2.04,2013-03-01 08:41:00,
2013-03-01 00:46:00,45.1,40.8,30.24,North,-999,0.0,4.0,85,0.00,,,-99.99,FreeWX 2.04,2013-03-01 08:46:00,
2013-03-01 00:51:00,45.3,41.4,30.24,North,-999,0.0,3.1,86,0.00,,,-99.99,FreeWX 2.04,2013-03-01 08:51:00,
2013-03-01 00:56:00,45.5,41.5,30.21,North,-999,0.0,0.0,86,0.00,,,-99.99,FreeWX 2.04,2013-03-01 08:56:00,
2013-03-01 01:01:00,45.5,41.5,30.21,North,-999,0.0,0.0,86,0.00,,,-99.99,FreeWX 2.04,2013-03-01 09:01:00,
2013-03-01 01:06:00,45.5,41.2,30.21,North,-999,0.0,2.7,85,0.00,,,-99.99,FreeWX 2.04,2013-03-01 09:06:00,
2013-03-01 01:11:00,45.3,41.4,30.24,North,-999,0.0,0.0,86,0.00,,,-99.99,FreeWX 2.04,2013-03-01 09:11:00,
2013-03-01 01:16:00,45.1,41.2,30.24,North,-999,0.0,0.0,86,0.00,,,-99.99,FreeWX 2.04,2013-03-01 09:16:00,
2013-03-01 01:21:00,45.0,41.0,30.24,North,-999,0.0,0.0,86,0.00,,,-99.99,FreeWX 2.04,2013-03-01 09:21:00,
2013-03-01 01:26:00,45.0,41.0,30.24,North,-999,0.0,0.0,86,0.00,,,-99.99,FreeWX 2.04,2013-03-01 09:26:00,
2013-03-01 01:31:00,45.1,41.2,30.24,North,-999,0.0,4.5,86,0.00,,,-99.99,FreeWX 2.04,2013-03-01 09:31:00,
2013-03-01 01:36:00,45.1,41.2,30.24,North,-999,0.0,3.6,86,0.00,,,-99.99,FreeWX 2.04,2013-03-01 09:36:00,
2013-03-01 01:41:00,45.0,41.0,30.24,North,-999,0.0,0.0,86,0.00,,,-99.99,FreeWX 2.04,2013-03-01 09:41:00,
2013-03-01 01:46:00,45.0,41.0,30.24,North,-999,0.0,0.0,86,0.00,,,-99.99,FreeWX 2.04,2013-03-01 09:46:00,
2013-03-01 01:51:00,44.8,40.8,30.24,North,-999,0.0,2.7,86,0.00,,,-99.99,FreeWX 2.04,2013-03-01 09:51:00,
2013-03-01 01:56:00,44.8,40.8,30.21,North,-999,0.0,2.7,86,0.00,,,-99.99,FreeWX 2.04,2013-03-01 09:56:00,
2013-03-01 02:01:00,44.8,40.8,30.21,North,-999,0.0,0.0,86,0.00,,,-99.99,FreeWX 2.04,2013-03-01 10:01:00,
2013-03-01 02:06:00,44.6,40.6,30.21,North,-999,0.0,0.0,86,0.00,,,-99.99,FreeWX 2.04,2013-03-01 10:06:00,
2013-03-01 02:11:00,44.4,40.5,30.21,North,-999,0.0,3.6,86,0.00,,,-99.99,FreeWX 2.04,2013-03-01 10:11:00,
2013-03-01 02:16:00,44.4,40.5,30.21,North,-999,0.0,3.6,86,0.00,,,-99.99,FreeWX 2.04,2013-03-01 10:16:00,
2013-03-01 02:21:00,44.4,40.5,30.21,North,-999,0.0,0.0,86,0.00,,,-99.99,FreeWX 2.04,2013-03-01 10:21:00,
2013-03-01 02:26:00,44.4,40.5,30.21,North,-999,0.0,0.0,86,0.00,,,-99.99,FreeWX 2.04,2013-03-01 10:26:00,
2013-03-01 02:31:00,44.2,40.3,30.21,North,-999,0.0,3.1,86,0.00,,,-99.99,FreeWX 2.04,2013-03-01 10:31:00,
2013-03-01 02:36:00,44.2,40.3,30.21,North,-999,0.0,0.0,86,0.00,,,-99.99,FreeWX 2.04,2013-03-01 10:36:00,
2013-03-01 02:41:00,44.4,40.5,30.21,North,-999,0.0,5.4,86,0.00,,,-99.99,FreeWX 2.04,2013-03-01 10:41:00,
2013-03-01 02:46:00,44.6,40.6,30.21,NW,305,1.0,3.6,86,0.00,,,-99.99,FreeWX 2.04,2013-03-01 10:46:00,
2013-03-01 02:51:00,44.8,41.2,30.21,WNW,298,1.0,4.0,87,0.00,,,-99.99,FreeWX 2.04,2013-03-01 10:51:00,
2013-03-01 02:56:00,44.6,41.0,30.21,North,-999,0.0,3.1,87,0.00,,,-99.99,FreeWX 2.04,2013-03-01 10:56:00,
2013-03-01 03:01:00,44.6,41.0,30.21,North,-999,0.0,4.0,87,0.00,,,-99.99,FreeWX 2.04,2013-03-01 11:01:00,
2013-03-01 03:06:00,44.6,41.0,30.21,West,266,1.0,4.9,87,0.00,,,-99.99,FreeWX 2.04,2013-03-01 11:06:00,
2013-03-01 03:11:00,44.6,41.0,30.21,North,-999,0.0,0.0,87,0.00,,,-99.99,FreeWX 2.04,2013-03-01 11:11:00,
2013-03-01 03:16:00,44.6,41.0,30.21,North,-999,0.0,2.7,87,0.00,,,-99.99,FreeWX 2.04,2013-03-01 11:16:00,
2013-03-01 03:21:00,44.4,40.8,30.21,North,-999,0.0,0.0,87,0.04,,,-99.99,FreeWX 2.04,2013-03-01 11:21:00,
2013-03-01 03:26:00,44.2,40.6,30.21,North,-999,0.0,0.0,87,0.04,,,-99.99,FreeWX 2.04,2013-03-01 11:26:00,
2013-03-01 03:31:00,44.2,40.6,30.21,North,-999,0.0,3.6,87,0.04,,,-99.99,FreeWX 2.04,2013-03-01 11:31:00,
2013-03-01 03:36:00,44.1,40.5,30.21,North,-999,0.0,3.1,87,0.04,,,-99.99,FreeWX 2.04,2013-03-01 11:36:00,
2013-03-01 03:41:00,44.1,40.5,30.21,North,-999,0.0,0.0,87,0.04,,,-99.99,FreeWX 2.04,2013-03-01 11:41:00,
2013-03-01 03:46:00,44.1,40.5,30.21,North,-999,0.0,0.0,87,0.04,,,-99.99,FreeWX 2.04,2013-03-01 11:46:00,
2013-03-01 03:51:00,43.9,40.3,30.21,North,-999,0.0,0.0,87,0.04,,,-99.99,FreeWX 2.04,2013-03-01 11:51:00,
2013-03-01 03:56:00,43.7,40.1,30.21,North,-999,0.0,3.6,87,0.04,,,-99.99,FreeWX 2.04,2013-03-01 11:56:00,
2013-03-01 04:01:00,43.5,39.9,30.21,North,-999,0.0,2.7,87,0.04,,,-99.99,FreeWX 2.04,2013-03-01 12:01:00,
2013-03-01 04:06:00,43.5,39.9,30.21,North,-999,0.0,3.6,87,0.04,,,-99.99,FreeWX 2.04,2013-03-01 12:06:00,
2013-03-01 04:11:00,43.5,39.9,30.21,North,-999,0.0,4.0,87,0.04,,,-99.99,FreeWX 2.04,2013-03-01 12:11:00,
2013-03-01 04:16:00,43.5,39.9,30.21,North,-999,0.0,2.7,87,0.04,,,-99.99,FreeWX 2.04,2013-03-01 12:16:00,
2013-03-01 04:21:00,43.3,39.7,30.21,North,-999,0.0,0.0,87,0.00,,,-99.99,FreeWX 2.04,2013-03-01 12:21:00,
2013-03-01 04:26:00,43.3,39.7,30.21,North,-999,0.0,5.4,87,0.00,,,-99.99,FreeWX 2.04,2013-03-01 12:26:00,
2013-03-01 04:31:00,43.3,39.7,30.21,North,-999,0.0,3.1,87,0.00,,,-99.99,FreeWX 2.04,2013-03-01 12:31:00,
2013-03-01 04:36:00,43.3,39.7,30.21,North,-999,0.0,3.6,87,0.00,,,-99.99,FreeWX 2.04,2013-03-01 12:36:00,
2013-03-01 04:41:00,43.3,39.7,30.21,North,-999,0.0,4.9,87,0.00,,,-99.99,FreeWX 2.04,2013-03-01 12:41:00,
2013-03-01 04:46:00,43.3,39.7,30.21,North,-999,0.0,0.0,87,0.00,,,-99.99,FreeWX 2.04,2013-03-01 12:46:00,
2013-03-01 04:51:00,43.3,39.7,30.21,North,-999,0.0,0.0,87,0.00,,,-99.99,FreeWX 2.04,2013-03-01 12:51:00,
2013-03-01 04:56:00,43.3,39.7,30.21,North,-999,0.0,2.7,87,0.00,,,-99.99,FreeWX 2.04,2013-03-01 12:56:00,
2013-03-01 05:01:00,43.5,40.3,30.21,North,-999,0.0,0.0,88,0.00,,,-99.99,FreeWX 2.04,2013-03-01 13:01:00,
2013-03-01 05:06:00,43.5,40.3,30.21,North,-999,0.0,0.0,88,0.00,,,-99.99,FreeWX 2.04,2013-03-01 13:06:00,
2013-03-01 05:11:00,43.5,40.3,30.21,North,-999,0.0,0.0,88,0.00,,,-99.99,FreeWX 2.04,2013-03-01 13:11:00,
2013-03-01 05:17:00,43.5,40.3,30.21,North,-999,0.0,0.0,88,0.00,,,-99.99,FreeWX 2.04,2013-03-01 13:17:00,
2013-03-01 05:22:00,43.5,40.3,30.21,North,-999,0.0,2.7,88,0.00,,,-99.99,FreeWX 2.04,2013-03-01 13:22:00,
2013-03-01 05:27:00,43.7,40.5,30.21,North,-999,0.0,4.0,88,0.00,,,-99.99,FreeWX 2.04,2013-03-01 13:27:00,
2013-03-01 05:32:00,43.5,40.3,30.21,North,-999,0.0,0.0,88,0.00,,,-99.99,FreeWX 2.04,2013-03-01 13:32:00,
2013-03-01 05:37:00,43.7,40.5,30.21,North,-999,0.0,0.0,88,0.00,,,-99.99,FreeWX 2.04,2013-03-01 13:37:00,
2013-03-01 05:42:00,43.5,40.3,30.21,North,-999,0.0,0.0,88,0.00,,,-99.99,FreeWX 2.04,2013-03-01 13:42:00,
2013-03-01 05:47:00,43.5,40.3,30.21,North,-999,0.0,2.7,88,0.00,,,-99.99,FreeWX 2.04,2013-03-01 13:47:00,
2013-03-01 05:52:00,43.5,40.3,30.21,North,-999,0.0,0.0,88,0.00,,,-99.99,FreeWX 2.04,2013-03-01 13:52:00,
2013-03-01 05:57:00,43.5,40.3,30.21,North,-999,0.0,0.0,88,0.00,,,-99.99,FreeWX 2.04,2013-03-01 13:57:00,
2013-03-01 06:02:00,43.5,40.3,30.21,North,-999,0.0,0.0,88,0.00,,,-99.99,FreeWX 2.04,2013-03-01 14:02:00,
2013-03-01 06:07:00,43.5,40.3,30.21,North,-999,0.0,0.0,88,0.00,,,-99.99,FreeWX 2.04,2013-03-01 14:07:00,
2013-03-01 06:12:00,43.3,40.1,30.21,North,-999,0.0,3.6,88,0.00,,,-99.99,FreeWX 2.04,2013-03-01 14:12:00,
2013-03-01 06:17:00,43.2,39.9,30.21,North,-999,0.0,4.5,88,0.00,,,-99.99,FreeWX 2.04,2013-03-01 14:17:00,
2013-03-01 06:22:00,43.0,39.7,30.21,North,-999,0.0,2.7,88,0.00,,,-99.99,FreeWX 2.04,2013-03-01 14:22:00,
2013-03-01 06:27:00,43.0,39.7,30.24,North,-999,0.0,0.0,88,0.00,,,-99.99,FreeWX 2.04,2013-03-01 14:27:00,
2013-03-01 06:32:00,42.8,39.6,30.24,North,-999,0.0,0.0,88,0.00,,,-99.99,FreeWX 2.04,2013-03-01 14:32:00,
2013-03-01 06:37:00,42.8,39.6,30.24,North,-999,0.0,3.1,88,0.00,,,-99.99,FreeWX 2.04,2013-03-01 14:37:00,
2013-03-01 06:42:00,42.8,39.6,30.21,North,-999,0.0,3.1,88,0.00,,,-99.99,FreeWX 2.04,2013-03-01 14:42:00,
2013-03-01 06:47:00,42.6,39.4,30.21,North,-999,0.0,0.0,88,0.00,,,-99.99,FreeWX 2.04,2013-03-01 14:47:00,
2013-03-01 06:52:00,42.8,39.6,30.21,North,-999,0.0,3.6,88,0.00,,,-99.99,FreeWX 2.04,2013-03-01 14:52:00,
2013-03-01 06:57:00,42.6,39.4,30.21,North,-999,0.0,4.0,88,0.00,,,-99.99,FreeWX 2.04,2013-03-01 14:57:00,
2013-03-01 07:02:00,42.6,39.4,30.21,North,-999,0.0,3.6,88,0.00,,,-99.99,FreeWX 2.04,2013-03-01 15:02:00,
2013-03-01 07:07:00,42.6,39.4,30.21,North,-999,0.0,0.0,88,0.00,,,-99.99,FreeWX 2.04,2013-03-01 15:07:00,
2013-03-01 07:12:00,42.6,39.6,30.24,North,-999,0.0,0.0,89,0.00,,,-99.99,FreeWX 2.04,2013-03-01 15:12:00,
2013-03-01 07:17:00,42.8,39.7,30.24,North,-999,0.0,4.0,89,0.00,,,-99.99,FreeWX 2.04,2013-03-01 15:17:00,
2013-03-01 07:22:00,43.0,39.9,30.24,North,-999,0.0,3.1,89,0.00,,,-99.99,FreeWX 2.04,2013-03-01 15:22:00,
2013-03-01 07:27:00,43.2,40.1,30.24,North,-999,0.0,0.0,89,0.00,,,-99.99,FreeWX 2.04,2013-03-01 15:27:00,
2013-03-01 07:32:00,43.2,40.1,30.24,North,-999,0.0,0.0,89,0.00,,,-99.99,FreeWX 2.04,2013-03-01 15:32:00,
2013-03-01 07:37:00,43.3,40.6,30.24,North,-999,0.0,4.0,90,0.00,,,-99.99,FreeWX 2.04,2013-03-01 15:37:00,
2013-03-01 07:42:00,43.5,40.8,30.24,North,-999,0.0,0.0,90,0.08,,,-99.99,FreeWX 2.04,2013-03-01 15:42:00,
2013-03-01 07:47:00,43.9,41.2,30.24,North,-999,0.0,0.0,90,0.08,,,-99.99,FreeWX 2.04,2013-03-01 15:47:00,
2013-03-01 07:52:00,44.2,41.5,30.24,North,-999,0.0,0.0,90,0.08,,,-99.99,FreeWX 2.04,2013-03-01 15:52:00,
2013-03-01 07:57:00,44.6,41.9,30.24,North,-999,0.0,0.0,90,0.08,,,-99.99,FreeWX 2.04,2013-03-01 15:57:00,
2013-03-01 08:02:00,45.0,42.4,30.24,North,-999,0.0,0.0,91,0.08,,,-99.99,FreeWX 2.04,2013-03-01 16:02:00,
2013-03-01 08:07:00,45.3,42.8,30.24,North,-999,0.0,0.0,91,0.08,,,-99.99,FreeWX 2.04,2013-03-01 16:07:00,
2013-03-01 08:12:00,45.7,43.2,30.24,North,-999,0.0,4.5,91,0.08,,,-99.99,FreeWX 2.04,2013-03-01 16:12:00,
2013-03-01 08:17:00,46.2,43.7,30.24,SSE,167,1.0,6.7,91,0.08,,,-99.99,FreeWX 2.04,2013-03-01 16:17:00,
2013-03-01 08:22:00,46.6,44.1,30.24,SSW,210,1.0,4.0,91,0.08,,,-99.99,FreeWX 2.04,2013-03-01 16:22:00,
2013-03-01 08:27:00,47.1,45.0,30.24,North,-999,0.0,0.0,92,0.08,,,-99.99,FreeWX 2.04,2013-03-01 16:27:00,
2013-03-01 08:32:00,47.7,45.5,30.24,North,-999,0.0,0.0,92,0.08,,,-99.99,FreeWX 2.04,2013-03-01 16:32:00,
2013-03-01 08:37:00,48.6,46.4,30.24,North,-999,0.0,2.7,92,0.08,,,-99.99,FreeWX 2.04,2013-03-01 16:37:00,
2013-03-01 08:42:00,49.1,46.9,30.24,North,-999,0.0,3.6,92,0.00,,,-99.99,FreeWX 2.04,2013-03-01 16:42:00,
2013-03-01 08:47:00,49.8,47.7,30.24,North,-999,0.0,0.0,92,0.00,,,-99.99,FreeWX 2.04,2013-03-01 16:47:00,
2013-03-01 08:52:00,50.5,48.4,30.24,North,-999,0.0,3.6,92,0.00,,,-99.99,FreeWX 2.04,2013-03-01 16:52:00,
2013-03-01 08:57:00,51.4,49.3,30.24,North,-999,0.0,5.4,92,0.00,,,-99.99,FreeWX 2.04,2013-03-01 16:57:00,
2013-03-01 09:02:00,52.2,49.8,30.24,North,-999,0.0,0.0,92,0.00,,,-99.99,FreeWX 2.04,2013-03-01 17:02:00,
2013-03-01 09:07:00,52.9,50.5,30.24,North,-999,0.0,5.4,92,0.00,,,-99.99,FreeWX 2.04,2013-03-01 17:07:00,
2013-03-01 09:12:00,53.6,51.3,30.24,ESE,102,1.0,5.8,92,0.00,,,-99.99,FreeWX 2.04,2013-03-01 17:12:00,
2013-03-01 09:17:00,58.5,56.7,30.24,ESE,105,2.0,4.9,94,0.00,,,-99.99,FreeWX 2.04,2013-03-01 17:17:00,
2013-03-01 09:22:00,65.1,63.3,30.24,ENE,77,2.0,4.5,94,0.00,,,-99.99,FreeWX 2.04,2013-03-01 17:22:00,
2013-03-01 09:27:00,68.9,65.5,30.24,ENE,66,1.0,5.8,89,0.00,,,-99.99,FreeWX 2.04,2013-03-01 17:27:00,
2013-03-01 09:32:00,71.8,66.4,30.24,North,-999,0.0,4.9,83,0.00,,,-99.99,FreeWX 2.04,2013-03-01 17:32:00,
2013-03-01 09:37:00,73.9,65.5,30.24,East,92,2.0,5.4,75,0.00,,,-99.99,FreeWX 2.04,2013-03-01 17:37:00,
2013-03-01 09:42:00,75.0,63.3,30.24,ENE,59,2.0,6.3,67,0.00,,,-99.99,FreeWX 2.04,2013-03-01 17:42:00,
2013-03-01 09:47:00,75.4,63.1,30.24,ENE,59,2.0,6.3,66,0.00,,,-99.99,FreeWX 2.04,2013-03-01 17:47:00,
2013-03-01 09:52:00,73.2,59.0,30.24,East,92,2.0,5.8,61,0.00,,,-99.99,FreeWX 2.04,2013-03-01 17:52:00,
2013-03-01 09:57:00,73.6,59.4,30.24,ENE,68,2.0,4.9,61,0.00,,,-99.99,FreeWX 2.04,2013-03-01 17:57:00,
2013-03-01 10:02:00,75.0,57.2,30.24,NNE,32,2.0,6.3,54,0.00,,,-99.99,FreeWX 2.04,2013-03-01 18:02:00,
2013-03-01 10:07:00,73.9,55.8,30.24,NNE,27,3.0,6.7,53,0.00,,,-99.99,FreeWX 2.04,2013-03-01 18:07:00,
2013-03-01 10:12:00,72.1,54.0,30.24,NE,48,3.0,6.9,53,0.00,,,-99.99,FreeWX 2.04,2013-03-01 18:12:00,
2013-03-01 10:17:00,72.9,53.1,30.24,NE,54,2.0,6.9,50,0.00,,,-99.99,FreeWX 2.04,2013-03-01 18:17:00,
2013-03-01 10:22:00,72.7,52.3,30.24,NE,41,2.0,7.8,49,0.00,,,-99.99,FreeWX 2.04,2013-03-01 18:22:00,
2013-03-01 10:27:00,71.1,52.0,30.24,NNE,21,3.0,6.7,51,0.00,,,-99.99,FreeWX 2.04,2013-03-01 18:27:00,
2013-03-01 10:32:00,69.1,49.1,30.24,ENE,68,2.0,6.3,49,0.00,,,-99.99,FreeWX 2.04,2013-03-01 18:32:00,
2013-03-01 10:37:00,68.5,50.7,30.24,ESE,113,2.0,4.9,53,0.00,,,-99.99,FreeWX 2.04,2013-03-01 18:37:00,
2013-03-01 10:42:00,69.4,52.0,30.24,North,-999,0.0,3.1,54,0.00,,,-99.99,FreeWX 2.04,2013-03-01 18:42:00,
2013-03-01 10:47:00,68.7,49.8,30.24,SE,128,1.0,5.4,51,0.00,,,-99.99,FreeWX 2.04,2013-03-01 18:47:00,
2013-03-01 10:52:00,67.3,49.1,30.24,ESE,121,1.0,5.4,52,0.00,,,-99.99,FreeWX 2.04,2013-03-01 18:52:00,
2013-03-01 10:57:00,67.1,49.8,30.21,SE,125,1.0,4.0,54,0.00,,,-99.99,FreeWX 2.04,2013-03-01 18:57:00,
2013-03-01 11:02:00,65.7,48.0,30.21,SE,138,1.0,5.4,53,0.00,,,-99.99,FreeWX 2.04,2013-03-01 19:02:00,
2013-03-01 11:07:00,65.1,48.6,30.21,SE,136,1.0,4.0,55,0.00,,,-99.99,FreeWX 2.04,2013-03-01 19:07:00,
2013-03-01 11:12:00,66.2,50.9,30.21,North,-999,0.0,3.6,58,0.00,,,-99.99,FreeWX 2.04,2013-03-01 19:12:00,
2013-03-01 11:17:00,67.3,51.1,30.21,North,-999,0.0,5.4,56,0.00,,,-99.99,FreeWX 2.04,2013-03-01 19:17:00,
2013-03-01 11:22:00,68.2,52.3,30.21,East,84,2.0,6.3,57,0.00,,,-99.99,FreeWX 2.04,2013-03-01 19:22:00,
2013-03-01 11:27:00,68.4,51.6,30.21,West,275,2.0,5.8,55,0.00,,,-99.99,FreeWX 2.04,2013-03-01 19:27:00,
2013-03-01 11:32:00,68.2,51.4,30.21,NW,306,2.0,5.4,55,0.00,,,-99.99,FreeWX 2.04,2013-03-01 19:32:00,
2013-03-01 11:37:00,68.7,51.8,30.21,North,351,3.0,5.8,55,0.00,,,-99.99,FreeWX 2.04,2013-03-01 19:37:00,
2013-03-01 11:42:00,68.7,51.4,30.21,NW,320,4.0,6.7,54,0.00,,,-99.99,FreeWX 2.04,2013-03-01 19:42:00,
2013-03-01 11:47:00,68.7,50.9,30.21,NNW,331,4.0,6.3,53,0.00,,,-99.99,FreeWX 2.04,2013-03-01 19:47:00,
2013-03-01 11:58:00,69.3,51.4,30.21,NW,308,3.0,6.9,53,0.00,,,-99.99,FreeWX 2.04,2013-03-01 19:58:00,
2013-03-01 12:03:00,68.9,50.0,30.21,WNW,298,4.0,7.4,51,0.00,,,-99.99,FreeWX 2.04,2013-03-01 20:03:00,
2013-03-01 12:08:00,68.9,50.5,30.21,West,277,3.0,6.9,52,0.00,,,-99.99,FreeWX 2.04,2013-03-01 20:08:00,
2013-03-01 12:13:00,68.7,49.8,30.21,NW,307,3.0,6.7,51,0.00,,,-99.99,FreeWX 2.04,2013-03-01 20:13:00,
2013-03-01 12:18:00,68.2,48.7,30.21,NW,315,4.0,9.2,50,0.00,,,-99.99,FreeWX 2.04,2013-03-01 20:18:00,
2013-03-01 12:23:00,67.6,48.4,30.21,WNW,299,4.0,7.8,50,0.00,,,-99.99,FreeWX 2.04,2013-03-01 20:23:00,
2013-03-01 12:28:00,67.1,47.8,30.21,WSW,258,4.0,7.4,50,0.00,,,-99.99,FreeWX 2.04,2013-03-01 20:28:00,
2013-03-01 12:33:00,66.0,46.8,30.21,West,280,4.0,8.3,50,0.00,,,-99.99,FreeWX 2.04,2013-03-01 20:33:00,
2013-03-01 12:38:00,65.5,46.9,30.21,WNW,282,3.0,5.8,51,0.00,,,-99.99,FreeWX 2.04,2013-03-01 20:38:00,
2013-03-01 12:43:00,64.9,47.3,30.21,NW,309,2.0,6.3,53,0.00,,,-99.99,FreeWX 2.04,2013-03-01 20:43:00,
2013-03-01 12:48:00,64.9,47.8,30.21,WNW,300,2.0,5.8,54,0.00,,,-99.99,FreeWX 2.04,2013-03-01 20:48:00,
2013-03-01 12:53:00,64.9,47.8,30.21,WSW,257,2.0,6.7,54,0.00,,,-99.99,FreeWX 2.04,2013-03-01 20:53:00,
2013-03-01 12:58:00,64.8,47.3,30.21,West,264,3.0,6.7,53,0.00,,,-99.99,FreeWX 2.04,2013-03-01 20:58:00,
2013-03-01 13:03:00,64.0,46.0,30.21,WSW,244,4.0,8.3,52,0.00,,,-99.99,FreeWX 2.04,2013-03-01 21:03:00,
2013-03-01 13:08:00,63.3,45.3,30.21,SW,235,4.0,7.4,52,0.00,,,-99.99,FreeWX 2.04,2013-03-01 21:08:00,
2013-03-01 13:13:00,63.5,46.0,30.21,West,266,4.0,6.9,53,0.00,,,-99.99,FreeWX 2.04,2013-03-01 21:13:00,
2013-03-01 13:18:00,64.4,47.8,30.21,WNW,288,3.0,6.7,55,0.00,,,-99.99,FreeWX 2.04,2013-03-01 21:18:00,
2013-03-01 13:23:00,65.1,48.0,30.21,WSW,249,2.0,5.8,54,0.00,,,-99.99,FreeWX 2.04,2013-03-01 21:23:00,
2013-03-01 13:28:00,65.5,47.8,30.21,WSW,242,1.0,5.4,53,0.00,,,-99.99,FreeWX 2.04,2013-03-01 21:28:00,
2013-03-01 13:33:00,65.1,46.0,30.21,WSW,242,1.0,5.4,50,0.00,,,-99.99,FreeWX 2.04,2013-03-01 21:33:00,
2013-03-01 13:38:00,64.4,45.3,30.21,West,261,3.0,6.7,50,0.00,,,-99.99,FreeWX 2.04,2013-03-01 21:38:00,
2013-03-01 13:43:00,63.7,44.6,30.21,West,275,3.0,6.9,50,0.00,,,-99.99,FreeWX 2.04,2013-03-01 21:43:00,
2013-03-01 13:48:00,63.3,45.0,30.21,West,262,3.0,6.3,51,0.00,,,-99.99,FreeWX 2.04,2013-03-01 21:48:00,
2013-03-01 13:53:00,63.0,45.1,30.21,NW,311,3.0,6.9,52,0.00,,,-99.99,FreeWX 2.04,2013-03-01 21:53:00,
2013-03-01 13:58:00,62.6,44.8,30.21,WNW,296,3.0,6.3,52,0.00,,,-99.99,FreeWX 2.04,2013-03-01 21:58:00,
2013-03-01 14:03:00,62.2,44.4,30.21,WSW,255,2.0,5.4,52,0.00,,,-99.99,FreeWX 2.04,2013-03-01 22:03:00,
2013-03-01 14:08:00,61.9,44.6,30.21,West,268,2.0,4.9,53,0.00,,,-99.99,FreeWX 2.04,2013-03-01 22:08:00,
2013-03-01 14:13:00,61.9,45.0,30.21,NW,320,2.0,4.9,54,0.00,,,-99.99,FreeWX 2.04,2013-03-01 22:13:00,
2013-03-01 14:18:00,61.9,44.6,30.21,WNW,303,1.0,5.8,53,0.00,,,-99.99,FreeWX 2.04,2013-03-01 22:18:00,
2013-03-01 14:23:00,61.9,45.0,30.21,WSW,256,1.0,4.5,54,0.00,,,-99.99,FreeWX 2.04,2013-03-01 22:23:00,
2013-03-01 14:28:00,61.7,45.0,30.21,North,-999,0.0,4.5,54,0.00,,,-99.99,FreeWX 2.04,2013-03-01 22:28:00,
2013-03-01 14:33:00,61.7,45.0,30.21,North,-999,0.0,3.6,54,0.08,,,-99.99,FreeWX 2.04,2013-03-01 22:33:00,
2013-03-01 14:38:00,61.5,45.1,30.21,North,-999,0.0,0.0,55,0.08,,,-99.99,FreeWX 2.04,2013-03-01 22:38:00,
2013-03-01 14:43:00,61.5,45.1,30.21,North,-999,0.0,5.8,55,0.08,,,-99.99,FreeWX 2.04,2013-03-01 22:43:00,
2013-03-01 14:48:00,61.3,45.0,30.21,North,0,1.0,6.3,55,0.08,,,-99.99,FreeWX 2.04,2013-03-01 22:48:00,
2013-03-01 14:53:00,60.6,43.9,30.21,North,9,1.0,4.9,54,0.08,,,-99.99,FreeWX 2.04,2013-03-01 22:53:00,
2013-03-01 14:58:00,60.8,44.6,30.21,North,-999,0.0,3.1,55,0.08,,,-99.99,FreeWX 2.04,2013-03-01 22:58:00,
2013-03-01 15:03:00,61.0,44.8,30.21,North,-999,0.0,3.6,55,0.08,,,-99.99,FreeWX 2.04,2013-03-01 23:03:00,
2013-03-01 15:08:00,61.0,45.1,30.21,North,-999,0.0,4.0,56,0.08,,,-99.99,FreeWX 2.04,2013-03-01 23:08:00,
2013-03-01 15:13:00,61.0,45.1,30.21,North,-999,0.0,0.0,56,0.08,,,-99.99,FreeWX 2.04,2013-03-01 23:13:00,
2013-03-01 15:18:00,61.2,45.3,30.21,North,-999,0.0,3.1,56,0.08,,,-99.99,FreeWX 2.04,2013-03-01 23:18:00,
2013-03-01 15:23:00,61.2,45.3,30.21,NNE,12,1.0,4.5,56,0.08,,,-99.99,FreeWX 2.04,2013-03-01 23:23:00,
2013-03-01 15:28:00,61.0,45.1,30.21,NNE,12,1.0,4.0,56,0.08,,,-99.99,FreeWX 2.04,2013-03-01 23:28:00,
2013-03-01 15:33:00,60.8,45.0,30.21,North,-999,0.0,3.6,56,0.00,,,-99.99,FreeWX 2.04,2013-03-01 23:33:00,
2013-03-01 15:38:00,60.6,44.8,30.21,North,-999,0.0,3.6,56,0.00,,,-99.99,FreeWX 2.04,2013-03-01 23:38:00,
2013-03-01 15:43:00,60.6,44.8,30.21,North,-999,0.0,3.6,56,0.00,,,-99.99,FreeWX 2.04,2013-03-01 23:43:00,
2013-03-01 15:48:00,60.4,44.6,30.21,NNE,12,1.0,4.5,56,0.00,,,-99.99,FreeWX 2.04,2013-03-01 23:48:00,
2013-03-01 15:53:00,60.4,45.1,30.21,North,354,1.0,4.5,57,0.00,,,-99.99,FreeWX 2.04,2013-03-01 23:53:00,
2013-03-01 15:58:00,60.3,44.4,30.21,NNW,341,2.0,4.5,56,0.00,,,-99.99,FreeWX 2.04,2013-03-01 23:58:00,
2013-03-01 16:03:00,60.1,44.8,30.21,North,356,2.0,4.5,57,0.00,,,-99.99,FreeWX 2.04,2013-03-02 00:03:00,
2013-03-01 16:08:00,60.1,44.8,30.21,North,356,1.0,3.1,57,0.00,,,-99.99,FreeWX 2.04,2013-03-02 00:08:00,
2013-03-01 16:13:00,60.1,44.8,30.21,North,-999,0.0,4.9,57,0.00,,,-99.99,FreeWX 2.04,2013-03-02 00:13:00,
2013-03-01 16:18:00,60.1,44.8,30.21,NNW,345,1.0,5.4,57,0.00,,,-99.99,FreeWX 2.04,2013-03-02 00:18:00,
2013-03-01 16:23:00,60.1,45.3,30.21,WNW,300,1.0,4.0,58,0.00,,,-99.99,FreeWX 2.04,2013-03-02 00:23:00,
2013-03-01 16:28:00,60.1,45.3,30.21,WNW,291,2.0,6.3,58,0.00,,,-99.99,FreeWX 2.04,2013-03-02 00:28:00,
2013-03-01 16:33:00,59.7,44.4,30.21,NNW,337,4.0,6.7,57,0.00,,,-99.99,FreeWX 2.04,2013-03-02 00:33:00,
2013-03-01 16:38:00,59.4,44.6,30.21,North,354,4.0,6.3,58,0.00,,,-99.99,FreeWX 2.04,2013-03-02 00:38:00,
2013-03-01 16:43:00,59.0,44.2,30.21,North,0,4.0,5.8,58,0.00,,,-99.99,FreeWX 2.04,2013-03-02 00:43:00,
2013-03-01 16:48:00,58.8,44.1,30.21,NNW,346,2.0,4.5,58,0.00,,,-99.99,FreeWX 2.04,2013-03-02 00:48:00,
2013-03-01 16:53:00,58.6,43.9,30.21,NNW,345,1.0,4.0,58,0.00,,,-99.99,FreeWX 2.04,2013-03-02 00:53:00,
2013-03-01 16:58:00,58.5,43.7,30.21,North,349,2.0,5.4,58,0.00,,,-99.99,FreeWX 2.04,2013-03-02 00:58:00,
2013-03-01 17:03:00,58.1,43.9,30.21,NNW,341,2.0,4.5,59,0.00,,,-99.99,FreeWX 2.04,2013-03-02 01:03:00,
2013-03-01 17:08:00,57.7,43.5,30.21,NW,322,1.0,4.9,59,0.00,,,-99.99,FreeWX 2.04,2013-03-02 01:08:00,
2013-03-01 17:13:00,57.6,43.7,30.21,WNW,286,1.0,4.9,60,0.00,,,-99.99,FreeWX 2.04,2013-03-02 01:13:00,
2013-03-01 17:18:00,57.2,43.5,30.21,North,-999,0.0,3.6,60,0.00,,,-99.99,FreeWX 2.04,2013-03-02 01:18:00,
2013-03-01 17:23:00,56.8,43.2,30.21,North,-999,0.0,0.0,60,0.00,,,-99.99,FreeWX 2.04,2013-03-02 01:23:00,
2013-03-01 17:28:00,56.8,43.2,30.24,North,-999,0.0,0.0,60,0.00,,,-99.99,FreeWX 2.04,2013-03-02 01:28:00,
2013-03-01 17:33:00,56.3,42.6,30.24,North,-999,0.0,0.0,60,0.00,,,-99.99,FreeWX 2.04,2013-03-02 01:33:00,
2013-03-01 17:38:00,56.1,42.8,30.24,North,-999,0.0,0.0,61,0.00,,,-99.99,FreeWX 2.04,2013-03-02 01:38:00,
2013-03-01 17:43:00,55.8,43.0,30.21,North,-999,0.0,0.0,62,0.00,,,-99.99,FreeWX 2.04,2013-03-02 01:43:00,
2013-03-01 17:48:00,55.6,43.2,30.21,North,-999,0.0,0.0,63,0.00,,,-99.99,FreeWX 2.04,2013-03-02 01:48:00,
2013-03-01 17:53:00,55.4,43.0,30.21,North,-999,0.0,0.0,63,0.00,,,-99.99,FreeWX 2.04,2013-03-02 01:53:00,
2013-03-01 17:58:00,55.0,42.6,30.24,North,-999,0.0,0.0,63,0.00,,,-99.99,FreeWX 2.04,2013-03-02 01:58:00,
2013-03-01 18:03:00,54.5,41.7,30.24,North,-999,0.0,0.0,62,0.00,,,-99.99,FreeWX 2.04,2013-03-02 02:03:00,
2013-03-01 18:08:00,54.0,41.7,30.24,North,-999,0.0,0.0,63,0.00,,,-99.99,FreeWX 2.04,2013-03-02 02:08:00,
2013-03-01 18:13:00,53.8,41.9,30.21,North,-999,0.0,0.0,64,0.00,,,-99.99,FreeWX 2.04,2013-03-02 02:13:00,
2013-03-01 18:18:00,53.8,42.3,30.21,North,-999,0.0,0.0,65,0.00,,,-99.99,FreeWX 2.04,2013-03-02 02:18:00,
2013-03-01 18:23:00,53.6,42.1,30.21,North,-999,0.0,0.0,65,0.00,,,-99.99,FreeWX 2.04,2013-03-02 02:23:00,
2013-03-01 18:28:00,53.1,41.5,30.24,North,-999,0.0,0.0,65,0.00,,,-99.99,FreeWX 2.04,2013-03-02 02:28:00,
2013-03-01 18:33:00,52.5,41.2,30.24,North,-999,0.0,0.0,65,0.00,,,-99.99,FreeWX 2.04,2013-03-02 02:33:00,
2013-03-01 18:38:00,52.2,40.8,30.24,North,-999,0.0,0.0,65,0.00,,,-99.99,FreeWX 2.04,2013-03-02 02:38:00,
2013-03-01 18:43:00,51.8,40.8,30.24,North,-999,0.0,0.0,66,0.00,,,-99.99,FreeWX 2.04,2013-03-02 02:43:00,
2013-03-01 18:48:00,51.8,40.8,30.24,North,-999,0.0,0.0,66,0.00,,,-99.99,FreeWX 2.04,2013-03-02 02:48:00,
2013-03-01 18:53:00,51.8,41.2,30.24,North,-999,0.0,0.0,67,0.00,,,-99.99,FreeWX 2.04,2013-03-02 02:53:00,
2013-03-01 18:58:00,51.6,41.0,30.24,North,-999,0.0,0.0,67,0.00,,,-99.99,FreeWX 2.04,2013-03-02 02:58:00,
2013-03-01 19:03:00,51.6,41.4,30.24,North,-999,0.0,0.0,68,0.00,,,-99.99,FreeWX 2.04,2013-03-02 03:03:00,
2013-03-01 19:08:00,51.4,41.2,30.24,North,-999,0.0,0.0,68,0.00,,,-99.99,FreeWX 2.04,2013-03-02 03:08:00,
2013-03-01 19:13:00,51.3,41.0,30.24,North,-999,0.0,0.0,68,0.00,,,-99.99,FreeWX 2.04,2013-03-02 03:13:00,
2013-03-01 19:18:00,51.1,40.8,30.24,North,-999,0.0,0.0,68,0.00,,,-99.99,FreeWX 2.04,2013-03-02 03:18:00,
2013-03-01 19:23:00,51.3,41.4,30.24,North,-999,0.0,0.0,69,0.00,,,-99.99,FreeWX 2.04,2013-03-02 03:23:00,
2013-03-01 19:28:00,51.1,41.2,30.24,North,-999,0.0,0.0,69,0.00,,,-99.99,FreeWX 2.04,2013-03-02 03:28:00,
2013-03-01 19:33:00,51.1,41.2,30.24,North,-999,0.0,0.0,69,0.00,,,-99.99,FreeWX 2.04,2013-03-02 03:33:00,
2013-03-01 19:38:00,51.1,41.7,30.24,North,-999,0.0,0.0,70,0.00,,,-99.99,FreeWX 2.04,2013-03-02 03:38:00,
2013-03-01 19:43:00,51.1,41.7,30.24,North,-999,0.0,0.0,70,0.00,,,-99.99,FreeWX 2.04,2013-03-02 03:43:00,
2013-03-01 19:48:00,50.7,41.4,30.24,North,-999,0.0,0.0,70,0.00,,,-99.99,FreeWX 2.04,2013-03-02 03:48:00,
2013-03-01 19:53:00,50.7,41.7,30.24,North,-999,0.0,0.0,71,0.00,,,-99.99,FreeWX 2.04,2013-03-02 03:53:00,
2013-03-01 19:58:00,50.7,41.7,30.24,North,-999,0.0,0.0,71,0.00,,,-99.99,FreeWX 2.04,2013-03-02 03:58:00,
2013-03-01 20:03:00,50.9,41.9,30.24,North,-999,0.0,0.0,71,0.00,,,-99.99,FreeWX 2.04,2013-03-02 04:03:00,
2013-03-01 20:08:00,50.9,41.9,30.24,North,-999,0.0,0.0,71,0.00,,,-99.99,FreeWX 2.04,2013-03-02 04:08:00,
2013-03-01 20:13:00,50.7,41.7,30.24,North,-999,0.0,0.0,71,0.00,,,-99.99,FreeWX 2.04,2013-03-02 04:13:00,
2013-03-01 20:18:00,50.5,41.5,30.24,North,-999,0.0,0.0,71,0.00,,,-99.99,FreeWX 2.04,2013-03-02 04:18:00,
2013-03-01 20:23:00,50.4,41.4,30.24,North,-999,0.0,0.0,71,0.00,,,-99.99,FreeWX 2.04,2013-03-02 04:23:00,
2013-03-01 20:28:00,50.2,41.2,30.24,North,-999,0.0,0.0,71,0.00,,,-99.99,FreeWX 2.04,2013-03-02 04:28:00,
2013-03-01 20:33:00,50.2,41.2,30.24,North,-999,0.0,0.0,71,0.00,,,-99.99,FreeWX 2.04,2013-03-02 04:33:00,
2013-03-01 20:38:00,50.0,41.4,30.24,North,-999,0.0,0.0,72,0.00,,,-99.99,FreeWX 2.04,2013-03-02 04:38:00,
2013-03-01 20:43:00,50.0,41.4,30.24,North,-999,0.0,0.0,72,0.00,,,-99.99,FreeWX 2.04,2013-03-02 04:43:00,
2013-03-01 20:48:00,50.0,41.4,30.24,North,-999,0.0,0.0,72,0.00,,,-99.99,FreeWX 2.04,2013-03-02 04:48:00,
2013-03-01 20:53:00,50.2,41.9,30.24,North,-999,0.0,0.0,73,0.00,,,-99.99,FreeWX 2.04,2013-03-02 04:53:00,
2013-03-01 20:58:00,50.0,41.7,30.24,North,-999,0.0,0.0,73,0.00,,,-99.99,FreeWX 2.04,2013-03-02 04:58:00,
2013-03-01 21:03:00,49.8,41.2,30.24,North,-999,0.0,0.0,72,0.00,,,-99.99,FreeWX 2.04,2013-03-02 05:03:00,
2013-03-01 21:08:00,49.5,40.8,30.24,North,-999,0.0,0.0,72,0.00,,,-99.99,FreeWX 2.04,2013-03-02 05:08:00,
2013-03-01 21:13:00,49.3,40.6,30.24,North,-999,0.0,0.0,72,0.00,,,-99.99,FreeWX 2.04,2013-03-02 05:13:00,
2013-03-01 21:18:00,49.1,40.8,30.24,North,-999,0.0,0.0,73,0.00,,,-99.99,FreeWX 2.04,2013-03-02 05:18:00,
2013-03-01 21:23:00,49.3,41.0,30.24,North,-999,0.0,0.0,73,0.00,,,-99.99,FreeWX 2.04,2013-03-02 05:23:00,
2013-03-01 21:28:00,49.3,41.0,30.24,North,-999,0.0,0.0,73,0.00,,,-99.99,FreeWX 2.04,2013-03-02 05:28:00,
2013-03-01 21:33:00,49.1,40.8,30.24,North,-999,0.0,0.0,73,0.00,,,-99.99,FreeWX 2.04,2013-03-02 05:33:00,
2013-03-01 21:38:00,49.3,41.0,30.24,North,-999,0.0,0.0,73,0.00,,,-99.99,FreeWX 2.04,2013-03-02 05:38:00,
2013-03-01 21:43:00,49.1,40.8,30.24,North,-999,0.0,0.0,73,0.00,,,-99.99,FreeWX 2.04,2013-03-02 05:43:00,
2013-03-01 21:48:00,49.3,41.4,30.24,North,-999,0.0,0.0,74,0.00,,,-99.99,FreeWX 2.04,2013-03-02 05:48:00,
2013-03-01 21:53:00,49.3,41.4,30.24,North,-999,0.0,0.0,74,0.00,,,-99.99,FreeWX 2.04,2013-03-02 05:53:00,
2013-03-01 21:58:00,49.3,41.4,30.24,North,-999,0.0,0.0,74,0.00,,,-99.99,FreeWX 2.04,2013-03-02 05:58:00,
2013-03-01 22:03:00,49.1,41.2,30.24,North,-999,0.0,0.0,74,0.00,,,-99.99,FreeWX 2.04,2013-03-02 06:03:00,
2013-03-01 22:08:00,49.1,41.2,30.24,North,-999,0.0,0.0,74,0.00,,,-99.99,FreeWX 2.04,2013-03-02 06:08:00,
2013-03-01 22:13:00,49.3,41.4,30.24,North,-999,0.0,0.0,74,0.00,,,-99.99,FreeWX 2.04,2013-03-02 06:13:00,
2013-03-01 22:18:00,49.3,41.4,30.24,North,-999,0.0,0.0,74,0.00,,,-99.99,FreeWX 2.04,2013-03-02 06:18:00,
2013-03-01 22:23:00,49.1,41.2,30.24,North,-999,0.0,0.0,74,0.00,,,-99.99,FreeWX 2.04,2013-03-02 06:23:00,
2013-03-01 22:28:00,49.3,41.4,30.24,North,-999,0.0,0.0,74,0.00,,,-99.99,FreeWX 2.04,2013-03-02 06:28:00,
2013-03-01 22:33:00,49.3,41.7,30.24,North,-999,0.0,0.0,75,0.00,,,-99.99,FreeWX 2.04,2013-03-02 06:33:00,
2013-03-01 22:38:00,49.5,41.9,30.24,North,-999,0.0,0.0,75,0.00,,,-99.99,FreeWX 2.04,2013-03-02 06:38:00,
2013-03-01 22:43:00,49.6,42.1,30.24,North,-999,0.0,0.0,75,0.00,,,-99.99,FreeWX 2.04,2013-03-02 06:43:00,
2013-03-01 22:48:00,49.5,41.9,30.24,North,-999,0.0,0.0,75,0.00,,,-99.99,FreeWX 2.04,2013-03-02 06:48:00,
2013-03-01 22:53:00,49.5,41.9,30.24,North,-999,0.0,0.0,75,0.00,,,-99.99,FreeWX 2.04,2013-03-02 06:53:00,
2013-03-01 22:58:00,49.5,41.9,30.24,North,-999,0.0,0.0,75,0.00,,,-99.99,FreeWX 2.04,2013-03-02 06:58:00,
2013-03-01 23:03:00,49.6,42.1,30.24,North,-999,0.0,0.0,75,0.00,,,-99.99,FreeWX 2.04,2013-03-02 07:03:00,
2013-03-01 23:08:00,49.6,42.1,30.24,North,-999,0.0,0.0,75,0.00,,,-99.99,FreeWX 2.04,2013-03-02 07:08:00,
2013-03-01 23:13:00,49.6,42.1,30.24,North,-999,0.0,0.0,75,0.00,,,-99.99,FreeWX 2.04,2013-03-02 07:13:00,
2013-03-01 23:18:00,49.8,42.6,30.24,North,-999,0.0,0.0,76,0.00,,,-99.99,FreeWX 2.04,2013-03-02 07:18:00,
2013-03-01 23:23:00,50.0,42.8,30.24,North,-999,0.0,0.0,76,0.00,,,-99.99,FreeWX 2.04,2013-03-02 07:23:00,
2013-03-01 23:28:00,50.0,42.8,30.24,North,-999,0.0,0.0,76,0.00,,,-99.99,FreeWX 2.04,2013-03-02 07:28:00,
2013-03-01 23:33:00,50.0,42.8,30.24,North,-999,0.0,0.0,76,0.00,,,-99.99,FreeWX 2.04,2013-03-02 07:33:00,
2013-03-01 23:38:00,50.2,43.0,30.24,North,-999,0.0,0.0,76,0.00,,,-99.99,FreeWX 2.04,2013-03-02 07:38:00,
2013-03-01 23:43:00,50.2,43.3,30.24,North,-999,0.0,0.0,77,0.00,,,-99.99,FreeWX 2.04,2013-03-02 07:43:00,
2013-03-01 23:48:00,50.2,43.3,30.24,North,-999,0.0,0.0,77,0.00,,,-99.99,FreeWX 2.04,2013-03-02 07:48:00,
2013-03-01 23:53:00,50.2,43.3,30.24,North,-999,0.0,0.0,77,0.00,,,-99.99,FreeWX 2.04,2013-03-02 07:53:00,
2013-03-01 23:58:00,50.2,43.3,30.24,North,-999,0.0,0.0,77,0.00,,,-99.99,FreeWX 2.04,2013-03-02 07:58:00,